Time;durP1;ratioP1;P1;durP2;ratioP2;P2;SDS_P1;SDS_P2;PMS_P1;PMS_P2;Temp;Humidity;BMP_temperature;BMP_pressure;BME280_temperature;BME280_humidity;BME280_pressure;Samples;Min_cycle;Max_cycle;Signal;HPM_P1;HPM_P2
2021/07/18 00:01:01;;;;;;;87.63;11.80;;;;;;;20.09;87.88;98245.88;5028362;28;20071;-71
2021/07/18 00:03:26;;;;;;;91.78;11.82;;;;;;;20.12;87.88;98243.00;5029649;28;20022;-71
2021/07/18 00:05:51;;;;;;;90.45;12.07;;;;;;;19.75;89.64;98245.78;5029077;28;20554;-71
2021/07/18 00:08:17;;;;;;;94.07;11.98;;;;;;;19.71;90.56;98241.63;5030885;28;20155;-71
2021/07/18 00:10:42;;;;;;;88.38;11.07;;;;;;;20.10;90.54;98231.69;5029048;28;20151;-72
2021/07/18 00:13:08;;;;;;;86.78;11.68;;;;;;;19.84;89.99;98237.13;5030365;28;20491;-72
2021/07/18 00:15:33;;;;;;;92.43;12.23;;;;;;;19.74;90.02;98233.53;5029652;28;20119;-72
2021/07/18 00:17:58;;;;;;;72.57;11.75;;;;;;;19.41;92.37;98235.03;5029446;28;20936;-72
2021/07/18 00:20:24;;;;;;;131.90;14.18;;;;;;;19.44;91.78;98234.78;5029169;28;20044;-72
2021/07/18 00:22:52;;;;;;;85.50;12.07;;;;;;;19.49;91.99;98230.97;5028403;28;20025;-71
2021/07/18 00:25:17;;;;;;;113.68;13.43;;;;;;;19.48;91.66;98226.63;5026575;28;20029;-72
2021/07/18 00:27:42;;;;;;;114.38;13.10;;;;;;;19.27;93.07;98228.09;5030169;28;20022;-72
2021/07/18 00:30:09;;;;;;;91.45;11.50;;;;;;;19.04;94.18;98220.97;5029313;28;20728;-71
2021/07/18 00:32:34;;;;;;;91.05;11.85;;;;;;;19.05;94.47;98222.69;5028985;28;20584;-71
2021/07/18 00:34:59;;;;;;;97.13;12.18;;;;;;;18.87;95.83;98217.75;5031444;28;20037;-72
2021/07/18 00:37:25;;;;;;;73.50;11.50;;;;;;;18.84;95.87;98214.50;5031033;28;20033;-72
2021/07/18 00:39:50;;;;;;;94.30;11.88;;;;;;;19.00;94.81;98216.88;5029066;28;20052;-72
2021/07/18 00:42:17;;;;;;;98.05;12.10;;;;;;;19.12;93.76;98228.38;5027768;28;20033;-71
2021/07/18 00:44:42;;;;;;;90.05;11.85;;;;;;;19.07;93.19;98224.25;5029964;28;20403;-72
2021/07/18 00:47:08;;;;;;;88.43;11.85;;;;;;;18.83;94.26;98226.84;5030324;28;20040;-71
2021/07/18 00:49:33;;;;;;;76.15;11.45;;;;;;;18.62;96.07;98226.56;5027568;28;20025;-71
2021/07/18 00:51:58;;;;;;;81.28;11.05;;;;;;;19.01;93.68;98229.97;5030068;28;20148;-73
2021/07/18 00:54:24;;;;;;;90.30;12.18;;;;;;;19.09;92.60;98239.16;5029432;28;20029;-72
2021/07/18 00:56:52;;;;;;;89.72;10.70;;;;;;;18.87;93.59;98235.41;5029203;28;20045;-72
2021/07/18 00:59:18;;;;;;;94.10;11.07;;;;;;;18.81;93.88;98233.22;5029255;28;20776;-72
2021/07/18 01:01:43;;;;;;;98.85;11.57;;;;;;;18.82;93.52;98229.59;5028642;28;20535;-71
2021/07/18 01:04:09;;;;;;;95.78;10.57;;;;;;;18.53;95.20;98232.47;5024596;28;20284;-72
2021/07/18 01:06:34;;;;;;;87.18;10.88;;;;;;;18.50;95.65;98227.41;5029743;28;20048;-72
2021/07/18 01:09:00;;;;;;;79.68;10.48;;;;;;;19.00;95.48;98225.63;5029388;28;20033;-71
2021/07/18 01:11:25;;;;;;;82.65;10.68;;;;;;;18.56;95.05;98220.84;5029472;28;20116;-72
2021/07/18 01:13:50;;;;;;;82.72;10.27;;;;;;;18.73;94.46;98211.72;5029376;28;20021;-71
2021/07/18 01:16:16;;;;;;;91.18;11.32;;;;;;;18.56;94.44;98205.84;5029178;28;20042;-71
2021/07/18 01:18:42;;;;;;;82.95;10.27;;;;;;;18.54;94.85;98207.75;5029647;28;20805;-71
2021/07/18 01:21:09;;;;;;;88.72;11.18;;;;;;;18.66;93.04;98213.97;5029696;28;20049;-72
2021/07/18 01:23:37;;;;;;;86.75;10.75;;;;;;;18.68;92.37;98212.91;5029389;28;20029;-72
2021/07/18 01:26:06;;;;;;;73.88;9.50;;;;;;;18.77;91.67;98221.97;5027981;28;20588;-72
2021/07/18 01:28:31;;;;;;;89.35;10.18;;;;;;;18.75;90.67;98225.66;5030140;28;20033;-72
2021/07/18 01:30:57;;;;;;;74.97;9.07;;;;;;;18.71;91.41;98229.50;5030247;28;20762;-72
2021/07/18 01:33:22;;;;;;;87.57;10.15;;;;;;;18.44;92.32;98222.56;5027429;28;20040;-71
2021/07/18 01:35:48;;;;;;;91.65;9.98;;;;;;;18.69;90.48;98225.19;5027662;28;20046;-71
2021/07/18 01:38:14;;;;;;;87.30;9.63;;;;;;;18.73;89.93;98222.28;5029398;28;20017;-71
2021/07/18 01:40:41;;;;;;;91.57;9.02;;;;;;;18.54;90.81;98213.03;5032668;28;20044;-72
2021/07/18 01:43:07;;;;;;;81.15;9.05;;;;;;;18.47;91.06;98211.75;5030451;28;20025;-74
2021/07/18 01:45:33;;;;;;;87.30;9.02;;;;;;;18.26;91.92;98212.31;5031527;28;20038;-72
2021/07/18 01:47:58;;;;;;;78.30;8.63;;;;;;;18.74;89.34;98218.72;5030393;28;20040;-74
2021/07/18 01:50:24;;;;;;;73.22;8.80;;;;;;;18.73;88.93;98219.66;5033560;28;20041;-73
2021/07/18 01:52:49;;;;;;;98.25;9.90;;;;;;;18.49;90.05;98220.44;5033458;28;20674;-70
2021/07/18 01:55:19;;;;;;;90.95;10.13;;;;;;;18.21;91.18;98221.50;5032243;28;20104;-71
2021/07/18 01:57:45;;;;;;;103.75;10.00;;;;;;;17.95;93.29;98216.19;5032167;28;20029;-71
2021/07/18 02:00:12;;;;;;;87.90;9.18;;;;;;;17.91;93.59;98217.38;5030846;28;20040;-71
2021/07/18 02:02:41;;;;;;;91.82;9.23;;;;;;;17.88;92.71;98230.75;5030976;28;20025;-73
2021/07/18 02:05:07;;;;;;;74.05;7.88;;;;;;;17.94;92.31;98216.31;5030414;28;20045;-71
2021/07/18 02:07:33;;;;;;;93.65;9.13;;;;;;;17.56;95.79;98217.91;5031238;28;20041;-71
2021/07/18 02:09:58;;;;;;;81.40;8.55;;;;;;;17.69;94.85;98224.03;5031502;28;20025;-73
2021/07/18 02:12:23;;;;;;;66.05;7.85;;;;;;;17.81;95.61;98227.66;5030592;28;20041;-70
2021/07/18 02:14:49;;;;;;;78.72;8.13;;;;;;;18.16;96.14;98229.75;5031369;28;20510;-71
2021/07/18 02:17:15;;;;;;;83.75;8.32;;;;;;;17.65;93.30;98229.63;5031230;28;20045;-72
2021/07/18 02:19:40;;;;;;;60.60;7.15;;;;;;;17.65;93.05;98225.19;5029931;28;20043;-72
2021/07/18 02:22:06;;;;;;;83.22;7.75;;;;;;;17.84;91.74;98224.81;5031341;28;20049;-73
2021/07/18 02:24:31;;;;;;;77.90;7.75;;;;;;;17.59;91.51;98224.75;5031147;28;20025;-72
2021/07/18 02:26:57;;;;;;;72.05;6.97;;;;;;;17.73;91.64;98232.59;5030259;28;20041;-72
2021/07/18 02:29:23;;;;;;;94.03;8.18;;;;;;;17.42;91.87;98233.78;5031662;28;20021;-73
2021/07/18 02:31:51;;;;;;;102.25;8.30;;;;;;;17.50;92.42;98231.50;5029638;28;20698;-72
2021/07/18 02:34:16;;;;;;;81.20;7.93;;;;;;;17.68;91.72;98227.66;5030980;28;20027;-72
2021/07/18 02:36:41;;;;;;;85.50;7.82;;;;;;;17.34;92.38;98239.56;5031739;28;20046;-72
2021/07/18 02:39:07;;;;;;;90.20;7.60;;;;;;;17.23;92.23;98236.78;5031262;28;20410;-72
2021/07/18 02:41:34;;;;;;;88.75;7.18;;;;;;;17.34;91.84;98234.28;5030278;28;20544;-71
2021/07/18 02:44:03;;;;;;;73.03;6.70;;;;;;;17.19;92.70;98235.28;5030692;28;20029;-72
2021/07/18 02:46:29;;;;;;;77.32;7.28;;;;;;;17.26;92.27;98240.06;5030924;28;20064;-72
2021/07/18 02:48:54;;;;;;;72.72;7.03;;;;;;;17.07;93.19;98234.25;5032162;28;20064;-72
2021/07/18 02:51:19;;;;;;;78.82;6.90;;;;;;;16.81;95.07;98234.09;5030008;28;20043;-71
2021/07/18 02:53:45;;;;;;;75.38;7.05;;;;;;;16.90;94.56;98232.69;5029033;28;20025;-72
2021/07/18 02:56:11;;;;;;;89.82;7.57;;;;;;;17.04;93.22;98245.84;5031327;28;20094;-72
2021/07/18 02:58:36;;;;;;;83.40;7.30;;;;;;;17.40;90.80;98247.06;5029434;28;20636;-73
2021/07/18 03:01:02;;;;;;;83.28;7.28;;;;;;;17.79;96.52;98248.03;5030195;28;20120;-72
2021/07/18 03:03:27;;;;;;;79.90;7.13;;;;;;;17.73;90.73;98254.53;5029648;28;20044;-72
2021/07/18 03:05:52;;;;;;;77.32;7.32;;;;;;;18.04;91.65;98247.25;5032004;28;20125;-72
2021/07/18 03:08:18;;;;;;;85.40;7.45;;;;;;;17.94;90.24;98240.06;5031320;28;20116;-72
2021/07/18 03:10:43;;;;;;;77.97;7.13;;;;;;;18.05;92.44;98232.28;5031394;28;20120;-71
2021/07/18 03:13:08;;;;;;;82.75;7.07;;;;;;;17.85;88.83;98236.25;5028504;28;20092;-72
2021/07/18 03:15:34;;;;;;;75.63;6.90;;;;;;;17.84;87.20;98243.28;5029828;28;20580;-72
2021/07/18 03:18:01;;;;;;;71.70;6.63;;;;;;;18.19;90.50;98240.09;5030923;28;21000;-71
2021/07/18 03:20:27;;;;;;;71.97;6.47;;;;;;;18.37;92.30;98245.06;5029429;28;20041;-72
2021/07/18 03:22:52;;;;;;;81.18;6.53;;;;;;;17.99;86.88;98248.50;5029258;28;20083;-72
2021/07/18 03:25:18;;;;;;;76.25;6.72;;;;;;;17.58;87.70;98249.44;5030218;28;20851;-73
2021/07/18 03:27:45;;;;;;;114.20;7.95;;;;;;;17.20;88.67;98250.97;5030570;28;20535;-72
2021/07/18 03:30:13;;;;;;;74.00;6.65;;;;;;;16.89;91.32;98252.06;5031152;28;20029;-72
2021/07/18 03:32:39;;;;;;;86.05;6.90;;;;;;;17.03;90.69;98245.94;5029871;28;20068;-73
2021/07/18 03:35:05;;;;;;;86.38;6.97;;;;;;;16.99;90.12;98250.56;5030320;28;20114;-72
2021/07/18 03:37:31;;;;;;;79.50;7.00;;;;;;;16.93;90.05;98251.81;5030030;28;20041;-72
2021/07/18 03:39:56;;;;;;;79.50;6.82;;;;;;;17.26;88.40;98255.00;5033585;28;20021;-73
2021/07/18 03:42:22;;;;;;;94.95;7.53;;;;;;;17.12;88.62;98246.19;5030602;28;20495;-72
2021/07/18 03:44:47;;;;;;;66.28;6.22;;;;;;;16.90;89.61;98253.78;5031958;28;20029;-72
2021/07/18 03:47:12;;;;;;;85.22;6.85;;;;;;;16.58;91.33;98256.59;5029598;28;20041;-71
2021/07/18 03:49:38;;;;;;;82.22;6.93;;;;;;;16.84;90.33;98243.63;5030404;28;20040;-73
2021/07/18 03:52:04;;;;;;;72.80;6.18;;;;;;;16.55;92.71;98246.25;5030232;28;20580;-72
2021/07/18 03:54:29;;;;;;;80.88;6.72;;;;;;;16.54;93.25;98252.44;5029281;28;20977;-72
2021/07/18 03:56:54;;;;;;;70.80;6.22;;;;;;;16.64;92.37;98247.47;5029147;28;20045;-71
2021/07/18 03:59:20;;;;;;;87.00;6.82;;;;;;;16.64;92.13;98258.84;5032047;28;20032;-72
2021/07/18 04:01:45;;;;;;;76.90;6.85;;;;;;;16.70;91.85;98262.88;5027831;28;20049;-72
2021/07/18 04:04:10;;;;;;;99.65;7.03;;;;;;;16.86;91.13;98258.38;5029986;28;20061;-72
2021/07/18 04:06:36;;;;;;;87.60;6.88;;;;;;;17.83;94.42;98253.94;5028993;28;20044;-71
2021/07/18 04:09:01;;;;;;;66.93;5.85;;;;;;;17.37;88.26;98256.94;5029547;28;20116;-72
2021/07/18 04:11:27;;;;;;;87.50;6.80;;;;;;;16.59;91.47;98247.75;5029415;28;20033;-72
2021/07/18 04:13:52;;;;;;;90.60;6.93;;;;;;;16.79;91.02;98246.50;5030970;28;20025;-73
2021/07/18 04:16:17;;;;;;;88.65;6.80;;;;;;;17.00;90.05;98254.91;5030980;28;20033;-72
2021/07/18 04:18:42;;;;;;;73.53;6.10;;;;;;;16.97;89.13;98252.44;5029049;28;20075;-72
2021/07/18 04:21:08;;;;;;;91.22;6.75;;;;;;;17.02;89.17;98257.41;5029420;28;20388;-73
2021/07/18 04:23:33;;;;;;;70.68;5.90;;;;;;;17.21;90.67;98265.03;5029667;28;20022;-73
2021/07/18 04:25:58;;;;;;;76.50;6.20;;;;;;;17.21;90.90;98265.03;5032603;28;20039;-71
2021/07/18 04:28:24;;;;;;;70.03;6.03;;;;;;;17.11;88.33;98273.50;5029536;28;20041;-72
2021/07/18 04:30:50;;;;;;;78.57;5.93;;;;;;;16.90;89.59;98269.59;5033303;28;20041;-71
2021/07/18 04:33:17;;;;;;;81.03;5.97;;;;;;;17.15;88.40;98272.38;5030078;28;20025;-71
2021/07/18 04:35:43;;;;;;;61.30;5.30;;;;;;;17.18;88.46;98268.69;5030593;28;20518;-71
2021/07/18 04:38:08;;;;;;;85.65;6.35;;;;;;;17.36;87.33;98277.22;5030880;28;20104;-72
2021/07/18 04:40:35;;;;;;;72.00;5.75;;;;;;;17.08;89.04;98273.69;5031424;28;20038;-71
2021/07/18 04:43:01;;;;;;;68.40;5.93;;;;;;;17.06;88.84;98278.22;5031058;28;20140;-71
2021/07/18 04:45:26;;;;;;;62.53;5.47;;;;;;;17.00;89.75;98275.97;5030750;28;20128;-73
2021/07/18 04:47:57;;;;;;;66.15;5.78;;;;;;;16.89;91.65;98275.78;5032270;28;20148;-72
2021/07/18 04:50:26;;;;;;;72.90;6.25;;;;;;;16.93;91.16;98269.41;5031127;28;20040;-71
2021/07/18 04:52:51;;;;;;;85.65;5.97;;;;;;;16.92;90.52;98267.69;5030805;28;20479;-72
2021/07/18 04:55:17;;;;;;;82.35;6.22;;;;;;;17.21;89.28;98273.78;5030116;28;20043;-71
2021/07/18 04:57:43;;;;;;;81.10;6.05;;;;;;;17.27;88.42;98278.63;5028565;28;20056;-72
2021/07/18 05:00:10;;;;;;;73.28;5.95;;;;;;;17.37;88.01;98284.19;5030781;28;20053;-71
2021/07/18 05:02:39;;;;;;;65.72;5.40;;;;;;;17.37;87.64;98294.72;5029536;28;20036;-71
2021/07/18 05:05:06;;;;;;;73.30;5.90;;;;;;;17.26;88.49;98286.63;5031848;28;20030;-71
2021/07/18 05:07:31;;;;;;;72.68;5.68;;;;;;;17.38;88.55;98285.88;5029156;28;20048;-71
2021/07/18 05:09:57;;;;;;;65.57;5.18;;;;;;;17.61;87.84;98288.78;5028745;28;20029;-71
2021/07/18 05:12:22;;;;;;;66.15;5.40;;;;;;;18.00;87.56;98289.81;5028587;28;20038;-72
2021/07/18 05:14:48;;;;;;;64.45;5.40;;;;;;;17.98;86.21;98283.78;5033146;28;20596;-72
2021/07/18 05:17:13;;;;;;;78.82;5.97;;;;;;;18.05;85.57;98285.06;5032917;28;20041;-73
2021/07/18 05:19:39;;;;;;;81.57;6.10;;;;;;;18.01;85.47;98291.47;5033541;28;20087;-71
2021/07/18 05:22:05;;;;;;;72.85;6.07;;;;;;;18.07;85.38;98299.84;5034203;28;20132;-72
2021/07/18 05:24:30;;;;;;;75.68;6.13;;;;;;;18.06;85.93;98294.66;5033801;28;20119;-71
2021/07/18 05:26:56;;;;;;;84.03;6.32;;;;;;;18.08;86.13;98292.75;5032298;28;20115;-71
2021/07/18 05:29:21;;;;;;;87.97;6.75;;;;;;;18.14;85.85;98295.00;5032404;28;20450;-71
2021/07/18 05:31:46;;;;;;;91.15;7.05;;;;;;;18.40;84.10;98295.03;5030607;28;20110;-72
2021/07/18 05:34:12;;;;;;;97.43;7.10;;;;;;;18.16;85.47;98295.75;5033668;28;20064;-70
2021/07/18 05:36:37;;;;;;;83.32;6.30;;;;;;;18.45;84.06;98299.06;5032404;28;20760;-71
2021/07/18 05:39:04;;;;;;;98.88;7.38;;;;;;;18.55;84.55;98301.91;5031793;28;20033;-71
2021/07/18 05:41:30;;;;;;;69.55;5.63;;;;;;;18.75;84.03;98299.66;5034497;28;20121;-72
2021/07/18 05:43:55;;;;;;;59.60;5.93;;;;;;;18.72;83.84;98300.72;5034239;28;20071;-72
2021/07/18 05:46:20;;;;;;;98.95;7.05;;;;;;;18.73;84.15;98301.56;5029093;28;20585;-71
2021/07/18 05:48:46;;;;;;;74.80;6.32;;;;;;;18.89;83.30;98307.50;5033434;28;20511;-71
2021/07/18 05:51:11;;;;;;;99.88;7.28;;;;;;;18.67;84.24;98302.84;5031003;28;20068;-72
2021/07/18 05:53:36;;;;;;;97.57;7.45;;;;;;;18.84;83.40;98313.13;5030581;28;20063;-71
2021/07/18 05:56:02;;;;;;;77.90;6.75;;;;;;;18.90;83.84;98314.50;5031956;28;20140;-72
2021/07/18 05:58:27;;;;;;;75.97;6.53;;;;;;;18.96;84.31;98311.41;5031401;28;20565;-71
2021/07/18 06:00:52;;;;;;;78.28;6.30;;;;;;;18.91;85.28;98315.31;5030965;28;20040;-71
2021/07/18 06:03:18;;;;;;;92.40;6.80;;;;;;;18.83;83.53;98310.59;5030912;28;20444;-71
2021/07/18 06:05:44;;;;;;;87.10;7.10;;;;;;;18.69;86.96;98309.72;5031039;28;20926;-72
2021/07/18 06:08:10;;;;;;;96.15;7.18;;;;;;;18.76;85.75;98311.94;5032399;28;20025;-72
2021/07/18 06:10:37;;;;;;;86.80;6.93;;;;;;;18.27;86.93;98301.16;5031143;28;20033;-71
2021/07/18 06:13:03;;;;;;;91.95;6.97;;;;;;;18.43;88.59;98311.50;5030423;28;20096;-72
2021/07/18 06:15:29;;;;;;;85.97;7.03;;;;;;;18.68;87.51;98315.09;5032313;28;20075;-71
2021/07/18 06:17:54;;;;;;;92.28;6.80;;;;;;;18.92;85.42;98312.56;5030624;28;20048;-72
2021/07/18 06:20:20;;;;;;;84.50;6.80;;;;;;;19.05;85.02;98316.03;5030142;28;20053;-72
2021/07/18 06:22:45;;;;;;;92.80;7.28;;;;;;;18.66;85.54;98312.56;5031057;28;20636;-72
2021/07/18 06:25:11;;;;;;;90.57;7.10;;;;;;;18.97;83.71;98321.03;5027302;28;20071;-72
2021/07/18 06:27:40;;;;;;;100.13;7.78;;;;;;;18.94;83.45;98321.25;5031698;28;20967;-71
2021/07/18 06:30:06;;;;;;;67.45;6.05;;;;;;;19.18;82.81;98317.81;5028727;28;20542;-73
2021/07/18 06:32:31;;;;;;;76.57;6.75;;;;;;;18.82;85.84;98322.97;5030515;28;20595;-71
2021/07/18 06:34:59;;;;;;;82.07;6.45;;;;;;;18.90;87.14;98333.00;5031451;28;20484;-71
2021/07/18 06:37:24;;;;;;;83.05;6.47;;;;;;;18.90;85.33;98335.63;5030320;28;20037;-71
2021/07/18 06:39:50;;;;;;;82.65;6.32;;;;;;;19.20;84.98;98326.50;5031622;28;20036;-71
2021/07/18 06:42:16;;;;;;;88.10;6.57;;;;;;;18.89;85.37;98331.28;5031336;28;20040;-71
2021/07/18 06:44:41;;;;;;;90.90;6.55;;;;;;;19.04;86.45;98332.88;5029156;28;20411;-72
2021/07/18 06:47:07;;;;;;;75.15;8.32;;;;;;;19.30;86.63;98326.66;5031558;28;20044;-71
2021/07/18 06:49:32;;;;;;;85.38;7.03;;;;;;;19.50;85.35;98334.03;5030432;28;20078;-72
2021/07/18 06:51:58;;;;;;;78.40;6.40;;;;;;;19.80;82.83;98325.69;5029496;28;20048;-72
2021/07/18 06:54:23;;;;;;;93.22;6.93;;;;;;;20.35;81.73;98335.75;5029566;28;20466;-73
2021/07/18 06:56:48;;;;;;;92.15;6.93;;;;;;;20.55;79.29;98329.78;5030569;28;20034;-71
2021/07/18 06:59:14;;;;;;;80.47;6.18;;;;;;;20.65;78.08;98329.09;5031001;28;20055;-72
2021/07/18 07:01:39;;;;;;;106.47;7.38;;;;;;;20.78;77.92;98329.84;5029304;28;20587;-71
2021/07/18 07:04:06;;;;;;;80.18;6.57;;;;;;;20.73;75.30;98334.66;5032321;28;20419;-73
2021/07/18 07:06:31;;;;;;;73.85;5.78;;;;;;;20.96;76.88;98332.88;5031970;28;20049;-72
2021/07/18 07:08:57;;;;;;;66.28;6.10;;;;;;;20.97;74.13;98331.88;5030492;28;20018;-71
2021/07/18 07:11:22;;;;;;;91.00;6.70;;;;;;;21.18;74.79;98338.16;5031056;28;20645;-72
2021/07/18 07:13:48;;;;;;;96.53;7.13;;;;;;;20.80;73.65;98336.69;5029583;28;20013;-72
2021/07/18 07:16:13;;;;;;;82.85;6.63;;;;;;;20.64;76.57;98335.34;5029998;28;20095;-72
2021/07/18 07:18:39;;;;;;;84.25;6.40;;;;;;;20.42;75.11;98337.81;5029993;28;20083;-73
2021/07/18 07:21:04;;;;;;;79.78;6.75;;;;;;;19.87;76.36;98338.44;5029221;28;20037;-72
2021/07/18 07:23:32;;;;;;;82.32;6.72;;;;;;;20.32;76.59;98342.13;5031826;28;20033;-73
2021/07/18 07:25:59;;;;;;;77.72;6.38;;;;;;;19.53;78.20;98343.53;5029246;28;20117;-71
2021/07/18 07:28:25;;;;;;;93.90;7.38;;;;;;;20.21;77.18;98334.97;5028041;28;20490;-72
2021/07/18 07:30:52;;;;;;;93.55;7.25;;;;;;;20.85;73.27;98331.06;5029659;28;20044;-71
2021/07/18 07:33:17;;;;;;;95.32;6.85;;;;;;;20.91;73.62;98335.88;5029813;28;20100;-72
2021/07/18 07:35:42;;;;;;;91.22;7.03;;;;;;;21.14;72.64;98341.19;5029130;28;20071;-72
2021/07/18 07:38:08;;;;;;;84.38;6.43;;;;;;;21.24;74.02;98342.13;5031090;28;20033;-71
2021/07/18 07:40:35;;;;;;;93.90;6.90;;;;;;;21.58;70.76;98339.47;5030462;28;20132;-72
2021/07/18 07:43:01;;;;;;;92.60;6.78;;;;;;;21.38;69.33;98341.03;5029666;28;20260;-72
2021/07/18 07:45:26;;;;;;;83.72;6.55;;;;;;;21.37;72.29;98339.34;5028889;28;20029;-72
2021/07/18 07:47:51;;;;;;;101.32;7.30;;;;;;;21.32;70.88;98342.38;5029749;28;20021;-72
2021/07/18 07:50:17;;;;;;;140.13;8.93;;;;;;;20.88;73.20;98335.25;5029855;28;20112;-71
2021/07/18 07:52:43;;;;;;;106.30;7.43;;;;;;;20.73;71.87;98337.28;5026742;28;20018;-70
2021/07/18 07:55:09;;;;;;;108.25;7.60;;;;;;;20.71;72.86;98336.56;5026733;28;20063;-70
2021/07/18 07:57:35;;;;;;;112.68;8.00;;;;;;;20.89;73.21;98337.78;5030147;28;20132;-71
2021/07/18 08:00:01;;;;;;;96.53;6.68;;;;;;;21.45;70.56;98330.78;5030734;28;20106;-72
2021/07/18 08:02:26;;;;;;;58.35;5.82;;;;;;;21.81;69.85;98332.28;5029678;28;20075;-72
2021/07/18 08:04:51;;;;;;;79.78;6.07;;;;;;;21.77;71.17;98319.41;5029628;28;20115;-71
2021/07/18 08:07:17;;;;;;;88.65;6.40;;;;;;;21.95;68.95;98326.69;5029483;28;20034;-72
2021/07/18 08:09:45;;;;;;;91.55;6.68;;;;;;;22.40;69.14;98312.34;5030825;28;20099;-73
2021/07/18 08:12:10;;;;;;;85.60;6.53;;;;;;;22.06;69.03;98320.47;5028784;28;20119;-73
2021/07/18 08:14:36;;;;;;;71.40;6.03;;;;;;;21.66;71.04;98325.56;5028143;28;20140;-72
2021/07/18 08:17:03;;;;;;;92.85;7.03;;;;;;;21.78;69.33;98332.53;5036993;28;20048;-72
2021/07/18 08:19:28;;;;;;;90.80;6.80;;;;;;;22.36;69.51;98329.53;5028597;28;20025;-73
2021/07/18 08:21:53;;;;;;;91.47;6.88;;;;;;;21.99;68.95;98323.78;5030860;28;20056;-71
2021/07/18 08:24:19;;;;;;;103.82;7.40;;;;;;;22.04;68.55;98322.44;5028241;28;20028;-71
2021/07/18 08:26:44;;;;;;;86.65;6.90;;;;;;;21.97;69.84;98321.25;5030859;28;20037;-73
2021/07/18 08:29:10;;;;;;;94.07;6.90;;;;;;;22.16;68.71;98319.72;5032891;28;20033;-72
2021/07/18 08:31:35;;;;;;;105.93;7.55;;;;;;;21.78;70.54;98315.75;5028231;28;20121;-72
2021/07/18 08:34:00;;;;;;;88.18;6.45;;;;;;;22.04;71.03;98314.44;5029287;28;20210;-73
2021/07/18 08:36:25;;;;;;;69.90;6.18;;;;;;;21.93;71.95;98325.13;5028324;28;20136;-71
2021/07/18 08:38:51;;;;;;;90.03;6.70;;;;;;;21.79;71.05;98317.44;5028084;28;20139;-70
2021/07/18 08:41:19;;;;;;;92.10;6.88;;;;;;;21.80;69.83;98319.13;5030784;28;20132;-72
2021/07/18 08:43:46;;;;;;;90.30;7.18;;;;;;;21.58;69.91;98320.03;5031327;28;20025;-72
2021/07/18 08:46:12;;;;;;;101.85;7.25;;;;;;;21.96;67.71;98324.84;5028521;28;20081;-72
2021/07/18 08:48:37;;;;;;;97.45;7.15;;;;;;;21.58;70.21;98314.72;5030049;28;20344;-72
2021/07/18 08:51:03;;;;;;;84.95;6.82;;;;;;;21.29;71.77;98316.09;5027091;28;20047;-73
2021/07/18 08:53:28;;;;;;;90.00;6.63;;;;;;;21.70;70.15;98322.53;5028771;28;20039;-73
2021/07/18 08:55:55;;;;;;;88.65;7.15;;;;;;;22.18;69.08;98313.28;5027529;28;20585;-72
2021/07/18 08:58:21;;;;;;;112.07;7.43;;;;;;;22.16;66.83;98317.06;5027328;28;20461;-73
2021/07/18 09:00:47;;;;;;;89.57;7.10;;;;;;;22.49;73.81;98316.88;5028077;28;20793;-73
2021/07/18 09:03:16;;;;;;;96.35;7.75;;;;;;;22.71;67.40;98307.91;5030858;28;20407;-73
2021/07/18 09:05:42;;;;;;;103.28;7.95;;;;;;;22.66;74.42;98317.25;5027222;28;20106;-72
2021/07/18 09:08:18;;;;;;;90.88;7.40;;;;;;;23.02;75.00;98318.56;5029377;28;20021;-73
2021/07/18 09:10:47;;;;;;;111.22;7.70;;;;;;;22.82;71.86;98314.13;5029744;28;20053;-72
2021/07/18 09:13:13;;;;;;;110.18;8.23;;;;;;;23.02;73.70;98309.75;5027820;28;20025;-73
2021/07/18 09:15:48;;;;;;;103.65;7.65;;;;;;;23.26;71.15;98310.25;5026873;28;20055;-71
2021/07/18 09:18:19;;;;;;;83.50;6.72;;;;;;;23.01;64.56;98305.38;5026860;28;20095;-72
2021/07/18 09:20:50;;;;;;;86.35;6.72;;;;;;;22.42;64.15;98305.09;5027432;28;20514;-70
2021/07/18 09:23:18;;;;;;;100.55;7.70;;;;;;;22.34;66.35;98302.25;5029312;28;20032;-72
2021/07/18 09:25:45;;;;;;;90.45;7.18;;;;;;;22.91;65.76;98311.50;5027922;28;20029;-72
2021/07/18 09:28:11;;;;;;;86.53;6.95;;;;;;;22.48;65.72;98301.94;5028086;28;20029;-72
2021/07/18 09:30:37;;;;;;;99.03;7.57;;;;;;;22.40;65.93;98315.00;5029509;28;20549;-73
2021/07/18 09:33:02;;;;;;;104.28;7.90;;;;;;;22.39;65.81;98315.16;5027136;28;20068;-71
2021/07/18 09:35:28;;;;;;;90.68;7.30;;;;;;;22.73;63.60;98313.09;5027291;28;20056;-71
2021/07/18 09:37:53;;;;;;;96.47;7.45;;;;;;;22.93;62.29;98308.72;5028092;28;20490;-69
2021/07/18 09:40:23;;;;;;;92.95;7.18;;;;;;;23.35;64.91;98308.63;5028085;28;20029;-71
2021/07/18 09:42:59;;;;;;;92.03;6.93;;;;;;;23.67;63.32;98310.22;5028769;28;20474;-73
2021/07/18 09:45:26;;;;;;;89.28;7.00;;;;;;;23.70;61.86;98306.44;5028550;28;20115;-74
2021/07/18 09:47:59;;;;;;;90.47;7.07;;;;;;;23.76;59.30;98305.88;5029649;28;20037;-73
2021/07/18 09:50:32;;;;;;;98.07;7.35;;;;;;;23.83;60.39;98307.88;5027922;28;20081;-73
2021/07/18 09:53:18;;;;;;;89.05;7.03;;;;;;;23.50;58.16;98306.41;5026328;28;20032;-73
2021/07/18 09:56:00;;;;;;;85.88;6.60;;;;;;;23.82;57.68;98305.34;5026749;28;20041;-72
2021/07/18 09:58:28;;;;;;;79.05;7.13;;;;;;;23.14;60.39;98306.03;5026627;28;20029;-73
2021/07/18 10:00:53;;;;;;;92.22;7.07;;;;;;;23.74;57.89;98298.03;5029885;28;20377;-73
2021/07/18 10:03:22;;;;;;;93.07;6.82;;;;;;;24.11;58.99;98304.50;5031290;28;20104;-71
2021/07/18 10:06:18;;;;;;;83.10;7.10;;;;;;;24.09;59.67;98293.16;5033223;28;20076;-73
2021/07/18 10:08:47;;;;;;;86.80;7.38;;;;;;;24.10;61.51;98297.53;5032404;28;20029;-71
2021/07/18 10:11:15;;;;;;;91.10;7.38;;;;;;;24.35;60.01;98293.41;5033139;28;20064;-72
2021/07/18 10:13:42;;;;;;;97.18;7.47;;;;;;;24.52;59.48;98299.81;5033642;28;20478;-72
2021/07/18 10:16:08;;;;;;;85.15;6.90;;;;;;;24.42;60.58;98295.34;5029632;28;20060;-73
2021/07/18 10:18:38;;;;;;;83.13;6.60;;;;;;;24.53;59.24;98297.03;5032961;28;20025;-72
2021/07/18 10:21:07;;;;;;;91.35;7.18;;;;;;;24.48;57.51;98290.41;5030917;28;20494;-73
2021/07/18 10:23:41;;;;;;;69.28;6.68;;;;;;;24.57;58.35;98284.25;5033127;28;20081;-72
2021/07/18 10:26:07;;;;;;;89.55;7.07;;;;;;;24.54;58.41;98284.56;5030879;28;20494;-72
2021/07/18 10:28:35;;;;;;;97.70;7.85;;;;;;;24.25;56.25;98280.94;5032146;28;20032;-71
2021/07/18 10:31:08;;;;;;;77.35;7.05;;;;;;;24.69;57.47;98282.28;5030388;28;20037;-74
2021/07/18 10:33:35;;;;;;;86.78;7.43;;;;;;;24.78;59.18;98282.22;5032112;28;20031;-73
2021/07/18 10:36:05;;;;;;;132.25;9.15;;;;;;;25.00;52.60;98272.19;5027196;28;20599;-72
2021/07/18 10:38:34;;;;;;;121.55;8.95;;;;;;;24.63;53.74;98271.19;5028380;28;20039;-73
2021/07/18 10:41:00;;;;;;;99.18;7.75;;;;;;;25.29;55.80;98274.72;5023704;28;20033;-74
2021/07/18 10:43:44;;;;;;;93.65;8.38;;;;;;;25.23;55.85;98279.78;5025232;28;20032;-74
2021/07/18 10:46:12;;;;;;;134.10;9.60;;;;;;;24.55;57.24;98271.06;5027181;28;20103;-73
2021/07/18 10:48:47;;;;;;;144.27;9.35;;;;;;;25.15;55.51;98273.34;5027252;28;20029;-73
2021/07/18 10:51:15;;;;;;;101.38;8.13;;;;;;;24.65;53.71;98270.19;5025936;28;20047;-73
2021/07/18 10:53:40;;;;;;;94.75;7.60;;;;;;;25.16;55.87;98269.72;5026819;28;20087;-73
2021/07/18 10:56:06;;;;;;;118.13;8.57;;;;;;;25.28;56.28;98272.19;5028279;28;20041;-73
2021/07/18 10:58:42;;;;;;;129.07;9.73;;;;;;;24.87;57.46;98280.50;5028636;28;20070;-73
2021/07/18 11:01:10;;;;;;;130.32;9.60;;;;;;;24.90;57.30;98276.69;5025705;28;20037;-72
2021/07/18 11:03:37;;;;;;;90.20;8.25;;;;;;;24.75;53.72;98274.50;5027729;28;20640;-73
2021/07/18 11:06:25;;;;;;;106.38;9.10;;;;;;;24.87;56.59;98274.31;5027202;28;20041;-72
2021/07/18 11:09:05;;;;;;;118.40;9.02;;;;;;;25.58;53.57;98269.19;5028871;28;20144;-73
2021/07/18 11:11:44;;;;;;;143.05;9.50;;;;;;;25.81;55.64;98274.06;5026184;28;20037;-73
2021/07/18 11:14:35;;;;;;;112.35;8.93;;;;;;;25.90;53.56;98283.84;5026253;28;20036;-73
2021/07/18 11:17:10;;;;;;;137.38;10.05;;;;;;;25.69;55.64;98280.63;5025342;28;20134;-72
2021/07/18 11:19:38;;;;;;;96.15;8.60;;;;;;;25.86;51.04;98266.44;5028341;28;20502;-73